Terminal Aerodrome Forecast
Issued by NWS

Home | Current Version | Previous Version | Text Only | Print | Product List | Glossary Off
Versions: 1 2 3 4 5 6 7 8 9 10 11 12 13 14 15 16 17 18 19 20 21 22 23 24 25 26

938
FTUS45 KGGW 262333
TAFOLF
TAF
KOLF 262333Z 2700/2724 06009KT P6SM VCSH SCT100
     FM270300 07007KT P6SM VCTS SCT090CB
     FM270600 08006KT P6SM -SHRA SCT090
      TEMPO 2706/2709 6SM TS BKN090CB
     FM270900 07005KT P6SM -SHRA VCTS BKN080CB
     FM271200 06006KT P6SM VCSH BKN070 PROB30 2712/2718 6SM TS
      OVC040CB
     FM271800 10005KT P6SM -SHRA VCTS BKN060CB=

USA.gov is the U.S. government's official web portal to all federal, state and local government web resources and services.